createdAt,value
2023-01-19T00:00:17.195Z,6.790
2023-01-19T00:01:16.439Z,6.784
2023-01-19T00:02:16.226Z,6.804
2023-01-19T00:03:16.474Z,6.804
2023-01-19T00:04:16.771Z,6.755
2023-01-19T00:05:16.764Z,6.671
2023-01-19T00:06:16.503Z,6.590
2023-01-19T00:07:16.473Z,6.614
2023-01-19T00:08:16.356Z,6.605
2023-01-19T00:09:16.204Z,6.638
2023-01-19T00:10:16.931Z,6.659
2023-01-19T00:11:16.695Z,6.715
2023-01-19T00:12:16.209Z,6.784
2023-01-19T00:13:16.044Z,6.822
2023-01-19T00:14:16.612Z,6.776
2023-01-19T00:15:16.546Z,6.715
2023-01-19T00:16:16.665Z,6.637
2023-01-19T00:17:16.555Z,6.664
2023-01-19T00:18:16.100Z,6.688
2023-01-19T00:19:16.463Z,6.735
2023-01-19T00:20:16.479Z,6.784
2023-01-19T00:21:16.526Z,6.839
2023-01-19T00:22:16.301Z,6.800
2023-01-19T00:23:16.235Z,6.815
2023-01-19T00:24:16.665Z,6.874
2023-01-19T00:25:16.348Z,6.827
2023-01-19T00:26:16.388Z,6.800
2023-01-19T00:27:16.437Z,6.855
2023-01-19T00:28:16.399Z,6.861
2023-01-19T00:29:16.264Z,6.828
2023-01-19T00:30:16.499Z,6.755
2023-01-19T00:31:16.169Z,6.755
2023-01-19T00:32:16.046Z,6.730
2023-01-19T00:33:16.595Z,6.730
2023-01-19T00:34:16.247Z,6.714
2023-01-19T00:35:16.208Z,6.695
2023-01-19T00:36:16.333Z,6.75
2023-01-19T00:37:16.258Z,6.804
2023-01-19T00:38:16.528Z,6.868
2023-01-19T00:39:16.395Z,6.815
2023-01-19T00:40:16.718Z,6.839
2023-01-19T00:41:16.137Z,6.868
2023-01-19T00:42:16.731Z,6.879
2023-01-19T00:43:16.252Z,6.833
2023-01-19T00:44:16.533Z,6.760
2023-01-19T00:45:16.746Z,6.789
2023-01-19T00:46:16.412Z,6.804
2023-01-19T00:47:16.218Z,6.810
2023-01-19T00:48:16.006Z,6.844
2023-01-19T00:49:16.146Z,6.806
2023-01-19T00:50:16.954Z,6.800
2023-01-19T00:51:16.324Z,6.822
2023-01-19T00:52:15.955Z,6.760
2023-01-19T00:53:16.530Z,6.734
2023-01-19T00:54:16.153Z,6.715
2023-01-19T00:55:16.455Z,6.75
2023-01-19T00:56:16.109Z,6.775
2023-01-19T00:57:16.290Z,6.764
2023-01-19T00:58:16.001Z,6.685
2023-01-19T00:59:16.614Z,6.655
2023-01-19T01:00:16.883Z,6.703
2023-01-19T01:01:18.279Z,6.671
2023-01-19T01:02:16.404Z,6.514
2023-01-19T01:03:16.559Z,6.574
2023-01-19T01:04:16.241Z,6.688
2023-01-19T01:05:16.256Z,6.710
2023-01-19T01:06:16.326Z,6.715
2023-01-19T01:07:16.244Z,6.75
2023-01-19T01:08:16.011Z,6.755
2023-01-19T01:09:16.684Z,6.743
2023-01-19T01:10:16.345Z,6.782
2023-01-19T01:11:15.892Z,6.822
2023-01-19T01:12:16.317Z,6.849
2023-01-19T01:13:21.218Z,6.873
2023-01-19T01:14:16.116Z,6.855
2023-01-19T01:15:16.310Z,6.849
2023-01-19T01:16:16.497Z,6.861
2023-01-19T01:17:16.037Z,6.833
2023-01-19T01:18:16.556Z,6.815
2023-01-19T01:19:16.608Z,6.804
2023-01-19T01:20:16.227Z,6.775
2023-01-19T01:21:16.021Z,6.769
2023-01-19T01:22:16.340Z,6.632
2023-01-19T01:23:16.109Z,6.625
2023-01-19T01:24:16.378Z,6.643
2023-01-19T01:25:16.262Z,6.605
2023-01-19T01:26:16.749Z,6.485
2023-01-19T01:27:16.465Z,6.489
2023-01-19T01:28:16.175Z,6.460
2023-01-19T01:29:16.420Z,6.579
2023-01-19T01:30:16.561Z,6.605
2023-01-19T01:31:16.594Z,6.631
2023-01-19T01:32:16.751Z,6.605
2023-01-19T01:33:39.791Z,6.590
2023-01-19T01:34:16.517Z,6.631
2023-01-19T01:35:16.503Z,6.610
2023-01-19T01:36:16.575Z,6.678
2023-01-19T01:37:16.472Z,6.650
2023-01-19T01:38:16.692Z,6.644
2023-01-19T01:39:17.125Z,6.633
2023-01-19T01:40:16.719Z,6.689
2023-01-19T01:41:16.384Z,6.643
2023-01-19T01:42:16.255Z,6.659
2023-01-19T01:43:16.437Z,6.75
2023-01-19T01:44:16.134Z,6.659
2023-01-19T01:45:16.787Z,6.681
2023-01-19T01:46:16.740Z,6.775
2023-01-19T01:47:16.459Z,6.849
2023-01-19T01:48:15.970Z,6.861
2023-01-19T01:49:16.578Z,6.849
2023-01-19T01:50:16.214Z,6.885
2023-01-19T01:51:15.862Z,6.849
2023-01-19T01:52:16.228Z,6.899
2023-01-19T01:53:16.437Z,6.934
2023-01-19T01:54:16.002Z,6.940
2023-01-19T01:55:16.621Z,6.900
2023-01-19T01:56:15.851Z,6.905
2023-01-19T01:57:16.260Z,6.914
2023-01-19T01:58:16.318Z,6.883
2023-01-19T01:59:15.962Z,6.900
2023-01-19T02:00:16.680Z,6.954
2023-01-19T02:01:16.304Z,6.989
2023-01-19T02:02:15.969Z,7.025
2023-01-19T02:03:16.536Z,7.025
2023-01-19T02:04:16.157Z,6.974
2023-01-19T02:05:16.204Z,6.965
2023-01-19T02:06:15.967Z,6.899
2023-01-19T02:07:16.433Z,6.925
2023-01-19T02:08:15.785Z,6.965
2023-01-19T02:09:16.456Z,7.019
2023-01-19T02:10:15.952Z,7.050
2023-01-19T02:11:16.381Z,7.019
2023-01-19T02:12:15.959Z,7.045
2023-01-19T02:13:16.683Z,7.065
2023-01-19T02:14:16.424Z,7.034
2023-01-19T02:15:16.461Z,7.019
2023-01-19T02:16:16.133Z,7.045
2023-01-19T02:17:15.920Z,6.923
2023-01-19T02:18:16.250Z,6.940
2023-01-19T02:19:15.996Z,7.010
2023-01-19T02:20:16.512Z,7.045
2023-01-19T02:21:16.099Z,7.059
2023-01-19T02:22:16.018Z,7.079
2023-01-19T02:23:16.348Z,7.085
2023-01-19T02:24:15.967Z,7.034
2023-01-19T02:25:16.647Z,7.025
2023-01-19T02:26:16.366Z,7.054
2023-01-19T02:27:15.872Z,7.010
2023-01-19T02:28:16.493Z,7.004
2023-01-19T02:29:16.196Z,6.993
2023-01-19T02:30:16.471Z,6.994
2023-01-19T02:31:16.008Z,6.967
2023-01-19T02:32:16.139Z,6.972
2023-01-19T02:33:15.951Z,6.965
2023-01-19T02:34:16.256Z,6.980
2023-01-19T02:35:16.657Z,6.965
2023-01-19T02:36:16.238Z,6.965
2023-01-19T02:37:16.027Z,6.989
2023-01-19T02:38:16.693Z,7.010
2023-01-19T02:39:16.463Z,6.985
2023-01-19T02:40:16.177Z,6.920
2023-01-19T02:41:16.087Z,6.920
2023-01-19T02:42:16.785Z,6.945
2023-01-19T02:43:16.131Z,6.965
2023-01-19T02:44:16.438Z,6.960
2023-01-19T02:45:16.369Z,6.883
2023-01-19T02:46:16.119Z,6.899
2023-01-19T02:47:15.918Z,6.925
2023-01-19T02:48:16.464Z,6.940
2023-01-19T02:49:16.148Z,6.929
2023-01-19T02:50:16.867Z,6.877
2023-01-19T02:51:16.394Z,6.940
2023-01-19T02:52:16.109Z,6.949
2023-01-19T02:53:16.220Z,6.974
2023-01-19T02:54:16.329Z,7.014
2023-01-19T02:55:16.137Z,6.954
2023-01-19T02:56:16.232Z,6.994
2023-01-19T02:57:16.335Z,7.070
2023-01-19T02:58:16.208Z,7.099
2023-01-19T02:59:16.033Z,7.065
2023-01-19T03:00:16.609Z,7.085
2023-01-19T03:01:16.701Z,7.065
2023-01-19T03:02:16.410Z,6.969
2023-01-19T03:03:16.412Z,6.920
2023-01-19T03:04:16.192Z,6.965
2023-01-19T03:05:15.998Z,7.005
2023-01-19T03:06:16.377Z,7.039
2023-01-19T03:07:15.975Z,7.045
2023-01-19T03:08:16.335Z,7.065
2023-01-19T03:09:15.954Z,6.974
2023-01-19T03:10:16.467Z,7
2023-01-19T03:11:16.254Z,7.034
2023-01-19T03:12:16.200Z,7.094
2023-01-19T03:13:16.184Z,7.099
2023-01-19T03:14:16.552Z,7.039
2023-01-19T03:15:16.510Z,7.034
2023-01-19T03:16:16.320Z,7
2023-01-19T03:17:16.035Z,7.034
2023-01-19T03:18:16.130Z,6.934
2023-01-19T03:19:16.460Z,6.934
2023-01-19T03:20:16.347Z,6.989
2023-01-19T03:21:16.084Z,6.880
2023-01-19T03:22:16.445Z,6.881
2023-01-19T03:23:16.068Z,6.965
2023-01-19T03:24:16.452Z,6.960
2023-01-19T03:25:16.383Z,7
2023-01-19T03:26:16.141Z,6.994
2023-01-19T03:27:16.710Z,6.934
2023-01-19T03:28:16.049Z,6.899
2023-01-19T03:29:16.351Z,6.945
2023-01-19T03:30:16.276Z,6.934
2023-01-19T03:31:16.199Z,6.872
2023-01-19T03:32:16.429Z,6.920
2023-01-19T03:33:16.606Z,6.929
2023-01-19T03:34:16.574Z,6.837
2023-01-19T03:35:16.213Z,6.855
2023-01-19T03:36:16.609Z,6.903
2023-01-19T03:37:16.637Z,6.795
2023-01-19T03:38:16.215Z,6.764
2023-01-19T03:39:16.158Z,6.840
2023-01-19T03:40:16.833Z,6.870
2023-01-19T03:41:16.644Z,6.940
2023-01-19T03:42:16.400Z,6.853
2023-01-19T03:43:16.531Z,6.905
2023-01-19T03:44:15.956Z,6.994
2023-01-19T03:45:16.302Z,7.013
2023-01-19T03:46:15.974Z,7.019
2023-01-19T03:47:16.097Z,7.048
2023-01-19T03:48:16.629Z,7.039
2023-01-19T03:49:16.471Z,7.039
2023-01-19T03:50:16.290Z,6.920
2023-01-19T03:51:16.257Z,6.949
2023-01-19T03:52:16.306Z,6.974
2023-01-19T03:53:16.552Z,7.025
2023-01-19T03:54:16.491Z,7.025
2023-01-19T03:55:16.273Z,7.025
2023-01-19T03:56:16.568Z,7.045
2023-01-19T03:57:16.456Z,7.059
2023-01-19T03:58:16.008Z,7.065
2023-01-19T03:59:16.090Z,7.090
2023-01-19T04:00:17.242Z,6.914
2023-01-19T04:01:16.495Z,6.969
2023-01-19T04:02:16.616Z,7.050
2023-01-19T04:03:16.381Z,7.074
2023-01-19T04:04:16.447Z,7.059
2023-01-19T04:05:16.601Z,6.940
2023-01-19T04:06:16.488Z,6.974
2023-01-19T04:07:16.512Z,7.005
2023-01-19T04:08:16.416Z,7.005
2023-01-19T04:09:18.571Z,6.994
2023-01-19T04:10:16.639Z,7.019
2023-01-19T04:11:17.058Z,6.925
2023-01-19T04:12:17.022Z,6.945
2023-01-19T04:13:16.555Z,6.934
2023-01-19T04:14:17.030Z,6.882
2023-01-19T04:15:16.774Z,6.769
2023-01-19T04:16:16.920Z,6.849
2023-01-19T04:17:16.730Z,6.929
2023-01-19T04:18:17.082Z,7.019
2023-01-19T04:19:16.397Z,7.025
2023-01-19T04:20:16.612Z,7.070
2023-01-19T04:21:17.066Z,7.099
2023-01-19T04:22:17.131Z,7.110
2023-01-19T04:23:16.868Z,7.070
2023-01-19T04:24:17.048Z,7.120
2023-01-19T04:25:16.503Z,7.110
2023-01-19T04:26:16.888Z,7.065
2023-01-19T04:27:17.222Z,7.150
2023-01-19T04:28:16.508Z,7.230
2023-01-19T04:29:16.751Z,7.255
2023-01-19T04:30:17.070Z,7.289
2023-01-19T04:31:16.301Z,7.239
2023-01-19T04:32:16.538Z,7.159
2023-01-19T04:33:16.327Z,7.019
2023-01-19T04:34:16.289Z,7.025
2023-01-19T04:35:16.238Z,7.090
2023-01-19T04:36:16.105Z,7.138
2023-01-19T04:37:16.364Z,7.034
2023-01-19T04:38:16.148Z,7.102
2023-01-19T04:39:16.085Z,7.210
2023-01-19T04:40:16.853Z,7.255
2023-01-19T04:41:16.408Z,7.215
2023-01-19T04:42:16.186Z,7.224
2023-01-19T04:43:16.229Z,7.230
2023-01-19T04:44:16.164Z,7.224
2023-01-19T04:45:16.860Z,7.260
2023-01-19T04:46:16.534Z,7.188
2023-01-19T04:47:16.756Z,7.171
2023-01-19T04:48:16.414Z,7.204
2023-01-19T04:49:16.451Z,7.239
2023-01-19T04:50:16.714Z,7.316
2023-01-19T04:51:16.402Z,7.344
2023-01-19T04:52:16.082Z,7.374
2023-01-19T04:53:16.164Z,7.284
2023-01-19T04:54:16.514Z,7.284
2023-01-19T04:55:16.797Z,7.217
2023-01-19T04:56:16.378Z,7.197
2023-01-19T04:57:16.575Z,7.296
2023-01-19T04:58:16.175Z,7.310
2023-01-19T04:59:16.492Z,7.25
2023-01-19T05:00:17.242Z,7.322
2023-01-19T05:01:16.478Z,7.341
2023-01-19T05:02:16.820Z,7.409
2023-01-19T05:03:16.832Z,7.392
2023-01-19T05:04:16.347Z,7.295
2023-01-19T05:05:16.761Z,7.372
2023-01-19T05:06:16.411Z,7.458
2023-01-19T05:07:16.557Z,7.434
2023-01-19T05:08:16.509Z,7.414
2023-01-19T05:09:16.656Z,7.453
2023-01-19T05:10:16.659Z,7.406
2023-01-19T05:11:16.599Z,7.400
2023-01-19T05:12:16.496Z,7.355
2023-01-19T05:13:16.562Z,7.333
2023-01-19T05:14:16.400Z,7.366
2023-01-19T05:15:16.620Z,7.388
2023-01-19T05:16:15.528Z,7.339
2023-01-19T05:17:16.607Z,7.304
2023-01-19T05:18:16.650Z,7.361
2023-01-19T05:19:16.303Z,7.344
2023-01-19T05:20:16.357Z,7.289
2023-01-19T05:21:16.455Z,7.315
2023-01-19T05:22:16.364Z,7.334
2023-01-19T05:23:16.350Z,7.383
2023-01-19T05:24:16.414Z,7.409
2023-01-19T05:25:16.400Z,7.440
2023-01-19T05:26:16.125Z,7.387
2023-01-19T05:27:16.196Z,7.315
2023-01-19T05:28:16.877Z,7.310
2023-01-19T05:29:16.659Z,7.328
2023-01-19T05:30:16.611Z,7.361
2023-01-19T05:31:18.593Z,7.344
2023-01-19T05:32:16.859Z,7.409
2023-01-19T05:33:16.919Z,7.289
2023-01-19T05:34:16.811Z,7.239
2023-01-19T05:35:20.191Z,7.244
2023-01-19T05:36:16.640Z,7.317
2023-01-19T05:37:16.146Z,7.420
2023-01-19T05:38:20.856Z,7.510
2023-01-19T05:39:16.223Z,7.554
2023-01-19T05:40:16.400Z,7.514
2023-01-19T05:41:16.527Z,7.414
2023-01-19T05:42:16.392Z,7.349
2023-01-19T05:43:15.679Z,7.400
2023-01-19T05:44:16.600Z,7.385
2023-01-19T05:45:16.931Z,7.505
2023-01-19T05:46:16.795Z,7.469
2023-01-19T05:47:16.628Z,7.485
2023-01-19T05:48:16.665Z,7.550
2023-01-19T05:49:16.301Z,7.599
2023-01-19T05:50:16.054Z,7.620
2023-01-19T05:51:16.655Z,7.550
2023-01-19T05:52:16.461Z,7.550
2023-01-19T05:53:16.227Z,7.505
2023-01-19T05:54:16.050Z,7.594
2023-01-19T05:55:16.843Z,7.688
2023-01-19T05:56:16.614Z,7.659
2023-01-19T05:57:16.342Z,7.626
2023-01-19T05:58:16.158Z,7.665
2023-01-19T05:59:16.367Z,7.744
2023-01-19T06:00:16.852Z,7.822
2023-01-19T06:01:21.301Z,7.784
2023-01-19T06:02:16.260Z,7.730
2023-01-19T06:03:16.623Z,7.693
2023-01-19T06:04:16.666Z,7.744
2023-01-19T06:05:16.775Z,7.659
2023-01-19T06:06:16.680Z,7.659
2023-01-19T06:07:16.596Z,7.655
2023-01-19T06:08:16.666Z,7.638
2023-01-19T06:09:16.563Z,7.614
2023-01-19T06:10:16.820Z,7.665
2023-01-19T06:11:16.268Z,7.650
2023-01-19T06:12:16.734Z,7.643
2023-01-19T06:13:16.509Z,7.688
2023-01-19T06:14:16.367Z,7.780
2023-01-19T06:15:16.473Z,7.810
2023-01-19T06:16:16.406Z,7.877
2023-01-19T06:17:16.652Z,7.872
2023-01-19T06:18:16.724Z,7.857
2023-01-19T06:19:16.704Z,7.883
2023-01-19T06:20:16.919Z,7.896
2023-01-19T06:21:16.970Z,7.873
2023-01-19T06:22:16.758Z,7.922
2023-01-19T06:23:16.664Z,7.954
2023-01-19T06:24:16.397Z,7.994
2023-01-19T06:25:16.755Z,7.888
2023-01-19T06:26:16.530Z,7.833
2023-01-19T06:27:16.662Z,7.800
2023-01-19T06:28:16.492Z,7.804
2023-01-19T06:29:16.621Z,7.867
2023-01-19T06:30:16.720Z,7.833
2023-01-19T06:31:31.025Z,7.833
2023-01-19T06:32:16.577Z,7.800
2023-01-19T06:33:16.442Z,7.789
2023-01-19T06:34:16.425Z,7.822
2023-01-19T06:35:16.437Z,7.822
2023-01-19T06:36:16.362Z,7.625
2023-01-19T06:37:16.345Z,7.638
2023-01-19T06:38:16.276Z,7.683
2023-01-19T06:39:16.962Z,7.724
2023-01-19T06:40:16.702Z,7.730
2023-01-19T06:41:16.841Z,7.649
2023-01-19T06:42:16.737Z,7.625
2023-01-19T06:43:16.921Z,7.637
2023-01-19T06:44:16.876Z,7.671
2023-01-19T06:45:16.827Z,7.631
2023-01-19T06:46:16.307Z,7.605
2023-01-19T06:47:16.648Z,7.5
2023-01-19T06:48:16.483Z,7.519
2023-01-19T06:49:16.384Z,7.619
2023-01-19T06:50:16.600Z,7.692
2023-01-19T06:51:16.612Z,7.744
2023-01-19T06:52:16.461Z,7.75
2023-01-19T06:53:16.125Z,7.760
2023-01-19T06:54:16.536Z,7.804
2023-01-19T06:55:16.466Z,7.744
2023-01-19T06:56:16.132Z,7.739
2023-01-19T06:57:16.406Z,7.717
2023-01-19T06:58:16.366Z,7.574
2023-01-19T06:59:16.524Z,7.664
2023-01-19T07:00:17.094Z,7.671
2023-01-19T07:01:16.340Z,7.686
2023-01-19T07:02:27.061Z,7.649
2023-01-19T07:03:16.509Z,7.730
2023-01-19T07:04:16.345Z,7.718
2023-01-19T07:05:16.412Z,7.611
2023-01-19T07:06:16.304Z,7.610
2023-01-19T07:07:16.333Z,7.631
2023-01-19T07:08:16.270Z,7.697
2023-01-19T07:09:17.090Z,7.764
2023-01-19T07:10:16.254Z,7.833
2023-01-19T07:11:26.681Z,7.811
2023-01-19T07:12:16.581Z,7.761
2023-01-19T07:13:16.756Z,7.760
2023-01-19T07:14:16.763Z,7.730
2023-01-19T07:15:16.763Z,7.760
2023-01-19T07:16:16.434Z,7.780
2023-01-19T07:17:16.819Z,7.789
2023-01-19T07:18:16.527Z,7.764
2023-01-19T07:19:16.708Z,7.676
2023-01-19T07:20:16.708Z,7.605
2023-01-19T07:21:16.675Z,7.631
2023-01-19T07:22:16.366Z,7.670
2023-01-19T07:23:16.306Z,7.534
2023-01-19T07:24:15.987Z,7.539
2023-01-19T07:25:16.921Z,7.494
2023-01-19T07:26:16.510Z,7.489
2023-01-19T07:27:16.335Z,7.474
2023-01-19T07:28:16.499Z,7.565
2023-01-19T07:29:16.407Z,7.590
2023-01-19T07:30:16.714Z,7.485
2023-01-19T07:31:16.486Z,7.554
2023-01-19T07:32:16.813Z,7.519
2023-01-19T07:33:16.818Z,7.534
2023-01-19T07:34:16.400Z,7.594
2023-01-19T07:35:16.487Z,7.637
2023-01-19T07:36:16.030Z,7.657
2023-01-19T07:37:16.880Z,7.609
2023-01-19T07:38:16.913Z,7.489
2023-01-19T07:39:16.777Z,7.493
2023-01-19T07:40:16.701Z,7.546
2023-01-19T07:41:16.629Z,7.638
2023-01-19T07:42:16.131Z,7.675
2023-01-19T07:43:16.300Z,7.712
2023-01-19T07:44:16.244Z,7.651
2023-01-19T07:45:16.318Z,7.599
2023-01-19T07:46:16.258Z,7.480
2023-01-19T07:47:16.386Z,7.399
2023-01-19T07:48:16.433Z,7.449
2023-01-19T07:49:16.539Z,7.505
2023-01-19T07:50:16.467Z,7.519
2023-01-19T07:51:16.362Z,7.525
2023-01-19T07:52:16.491Z,7.565
2023-01-19T07:53:16.381Z,7.519
2023-01-19T07:54:16.351Z,7.489
2023-01-19T07:55:16.503Z,7.337
2023-01-19T07:56:16.219Z,7.425
2023-01-19T07:57:16.330Z,7.405
2023-01-19T07:58:16.426Z,7.315
2023-01-19T07:59:16.387Z,7.394
2023-01-19T08:00:17.000Z,7.434
2023-01-19T08:01:16.493Z,7.449
2023-01-19T08:02:17.400Z,7.449
2023-01-19T08:03:16.537Z,7.445
2023-01-19T08:04:16.148Z,7.405
2023-01-19T08:05:16.456Z,7.349
2023-01-19T08:06:16.182Z,7.429
2023-01-19T08:07:16.441Z,7.429
2023-01-19T08:08:16.021Z,7.434
2023-01-19T08:09:16.563Z,7.377
2023-01-19T08:10:16.273Z,7.383
2023-01-19T08:11:16.318Z,7.344
2023-01-19T08:12:16.146Z,7.368
2023-01-19T08:13:16.442Z,7.420
2023-01-19T08:14:16.328Z,7.454
2023-01-19T08:15:16.236Z,7.454
2023-01-19T08:16:16.451Z,7.382
2023-01-19T08:17:16.410Z,7.434
2023-01-19T08:18:16.295Z,7.443
2023-01-19T08:19:16.428Z,7.383
2023-01-19T08:20:16.168Z,7.434
2023-01-19T08:21:15.978Z,7.485
2023-01-19T08:22:16.008Z,7.460
2023-01-19T08:23:16.460Z,7.489
2023-01-19T08:24:16.552Z,7.525
2023-01-19T08:25:16.835Z,7.505
2023-01-19T08:26:16.676Z,7.505
2023-01-19T08:27:16.762Z,7.505
2023-01-19T08:28:16.555Z,7.530
2023-01-19T08:29:16.943Z,7.605
2023-01-19T08:30:22.036Z,7.620
2023-01-19T08:31:21.136Z,7.649
2023-01-19T08:32:16.893Z,7.665
2023-01-19T08:33:16.509Z,7.703
2023-01-19T08:34:16.677Z,7.775
2023-01-19T08:35:16.664Z,7.703
2023-01-19T08:36:16.458Z,7.698
2023-01-19T08:37:16.717Z,7.75
2023-01-19T08:38:16.680Z,7.775
2023-01-19T08:39:17.345Z,7.821
2023-01-19T08:40:16.714Z,7.833
2023-01-19T08:41:17.002Z,7.804
2023-01-19T08:42:16.911Z,7.833
2023-01-19T08:43:17.134Z,7.804
2023-01-19T08:44:16.304Z,7.75
2023-01-19T08:45:16.668Z,7.796
2023-01-19T08:46:16.754Z,7.883
2023-01-19T08:47:16.905Z,7.839
2023-01-19T08:48:16.381Z,7.833
2023-01-19T08:49:17.045Z,7.867
2023-01-19T08:50:17.270Z,7.905
2023-01-19T08:51:16.839Z,7.969
2023-01-19T08:52:16.871Z,8.020
2023-01-19T08:53:17.063Z,8.050
2023-01-19T08:54:18.366Z,8.098
2023-01-19T08:55:17.191Z,8.086
2023-01-19T08:56:16.819Z,8.005
2023-01-19T08:57:17.067Z,7.988
2023-01-19T08:58:16.433Z,8.027
2023-01-19T08:59:16.948Z,8.060
2023-01-19T09:00:16.830Z,8.064
2023-01-19T09:01:17.268Z,8.039
2023-01-19T09:02:16.955Z,8.010
2023-01-19T09:03:16.708Z,7.960
2023-01-19T09:04:16.830Z,8.069
2023-01-19T09:05:17.313Z,8.137
2023-01-19T09:06:17.126Z,8.170
2023-01-19T09:07:16.811Z,8.199
2023-01-19T09:08:17.344Z,8.225
2023-01-19T09:09:16.975Z,8.199
2023-01-19T09:10:17.315Z,8.220
2023-01-19T09:11:17.007Z,8.255
2023-01-19T09:12:16.833Z,8.234
2023-01-19T09:13:16.783Z,8.260
2023-01-19T09:14:17.460Z,8.310
2023-01-19T09:15:17.083Z,8.379
2023-01-19T09:16:17.131Z,8.449
2023-01-19T09:17:16.830Z,8.465
2023-01-19T09:18:17.138Z,8.430
2023-01-19T09:19:17.391Z,8.362
2023-01-19T09:20:16.168Z,8.355
2023-01-19T09:21:16.733Z,8.373
2023-01-19T09:22:16.844Z,8.404
2023-01-19T09:23:17.035Z,8.420
2023-01-19T09:24:17.007Z,8.430
2023-01-19T09:25:16.756Z,8.454
2023-01-19T09:26:16.768Z,8.505
2023-01-19T09:27:17.231Z,8.529
2023-01-19T09:28:16.700Z,8.510
2023-01-19T09:29:16.812Z,8.560
2023-01-19T09:30:17.193Z,8.631
2023-01-19T09:31:16.949Z,8.715
2023-01-19T09:32:16.899Z,8.659
2023-01-19T09:33:16.991Z,8.649
2023-01-19T09:34:16.674Z,8.604
2023-01-19T09:35:16.742Z,8.569
2023-01-19T09:36:16.840Z,8.585
2023-01-19T09:37:17.306Z,8.569
2023-01-19T09:38:16.982Z,8.529
2023-01-19T09:39:17.426Z,8.579
2023-01-19T09:40:17.176Z,8.677
2023-01-19T09:41:18.928Z,8.687
2023-01-19T09:42:16.501Z,8.694
2023-01-19T09:43:16.899Z,8.699
2023-01-19T09:44:17.015Z,8.704
2023-01-19T09:45:17.515Z,8.784
2023-01-19T09:46:16.957Z,8.861
2023-01-19T09:47:17.259Z,8.833
2023-01-19T09:48:16.564Z,8.755
2023-01-19T09:49:16.856Z,8.734
2023-01-19T09:50:16.579Z,8.684
2023-01-19T09:53:17.270Z,8.739
2023-01-19T09:54:17.376Z,8.739
2023-01-19T09:55:17.077Z,8.725
2023-01-19T09:56:16.743Z,8.755
2023-01-19T09:57:17.032Z,8.795
2023-01-19T09:58:16.812Z,8.795
2023-01-19T09:59:17.012Z,8.800
2023-01-19T10:00:17.133Z,8.817
2023-01-19T10:01:16.753Z,8.75
2023-01-19T10:02:17.218Z,8.725
2023-01-19T10:03:16.538Z,8.765
2023-01-19T10:04:17.059Z,8.789
2023-01-19T10:05:17.241Z,8.805
2023-01-19T10:06:16.915Z,8.795
2023-01-19T10:07:16.612Z,8.729
2023-01-19T10:08:16.648Z,8.774
2023-01-19T10:09:16.625Z,8.75
2023-01-19T10:10:16.580Z,8.696
2023-01-19T10:11:16.904Z,8.677
2023-01-19T10:12:19.098Z,8.739
2023-01-19T10:13:16.937Z,8.786
2023-01-19T10:14:16.883Z,8.826
2023-01-19T10:15:17.029Z,8.829
2023-01-19T10:16:16.721Z,8.789
2023-01-19T10:17:16.861Z,8.781
2023-01-19T10:18:17.050Z,8.770
2023-01-19T10:19:16.356Z,8.694
2023-01-19T10:20:16.963Z,8.682
2023-01-19T10:21:16.915Z,8.657
2023-01-19T10:22:16.491Z,8.715
2023-01-19T10:23:16.453Z,8.744
2023-01-19T10:24:16.468Z,8.821
2023-01-19T10:25:16.937Z,8.765
2023-01-19T10:26:17.263Z,8.784
2023-01-19T10:27:16.407Z,8.744
2023-01-19T10:28:16.441Z,8.729
2023-01-19T10:29:16.618Z,8.779
2023-01-19T10:30:17.352Z,8.725
2023-01-19T10:31:17.018Z,8.689
2023-01-19T10:32:16.662Z,8.687
2023-01-19T10:33:17.499Z,8.739
2023-01-19T10:34:19.806Z,8.708
2023-01-19T10:35:17.060Z,8.770
2023-01-19T10:36:16.688Z,8.845
2023-01-19T10:37:17.278Z,8.883
2023-01-19T10:38:16.512Z,8.850
2023-01-19T10:39:16.701Z,8.855
2023-01-19T10:40:17.183Z,8.873
2023-01-19T10:41:16.584Z,8.850
2023-01-19T10:42:16.735Z,8.784
2023-01-19T10:43:17.179Z,8.854
2023-01-19T10:44:16.688Z,8.920
2023-01-19T10:45:17.511Z,8.914
2023-01-19T10:46:16.806Z,8.935
2023-01-19T10:47:16.588Z,8.960
2023-01-19T10:48:16.531Z,9.045
2023-01-19T10:49:17.038Z,9.074
2023-01-19T10:50:17.220Z,9.085
2023-01-19T10:51:16.423Z,9.149
2023-01-19T10:52:18.865Z,9.137
2023-01-19T10:53:16.741Z,9.142
2023-01-19T10:54:16.893Z,9.138
2023-01-19T10:55:17.306Z,9.095
2023-01-19T10:56:16.722Z,9.171
2023-01-19T10:57:21.608Z,9.114
2023-01-19T10:58:18.823Z,9.114
2023-01-19T10:59:22.037Z,9.125
2023-01-19T11:00:17.249Z,9.203
2023-01-19T11:01:24.983Z,9.220
2023-01-19T11:02:17.089Z,9.229
2023-01-19T11:03:17.007Z,9.203
2023-01-19T11:04:16.752Z,9.125
2023-01-19T11:05:17.260Z,9.064
2023-01-19T11:06:16.924Z,9.109
2023-01-19T11:07:17.069Z,9.126
2023-01-19T11:08:16.207Z,9.178
2023-01-19T11:09:31.327Z,9.192
2023-01-19T11:10:16.483Z,9.244
2023-01-19T11:11:16.632Z,9.279
2023-01-19T11:12:17.036Z,9.345
2023-01-19T11:13:31.131Z,9.379
2023-01-19T11:14:17.055Z,9.315
2023-01-19T11:15:16.498Z,9.378
2023-01-19T11:16:16.575Z,9.338
2023-01-19T11:17:16.891Z,9.345
2023-01-19T11:18:16.925Z,9.418
2023-01-19T11:19:16.715Z,9.432
2023-01-19T11:20:16.791Z,9.321
2023-01-19T11:21:17.300Z,9.373
2023-01-19T11:22:17.173Z,9.420
2023-01-19T11:23:16.500Z,9.362
2023-01-19T11:24:16.722Z,9.414
2023-01-19T11:25:17.233Z,9.5
2023-01-19T11:26:16.489Z,9.529
2023-01-19T11:27:16.739Z,9.529
2023-01-19T11:28:17.023Z,9.550
2023-01-19T11:29:16.798Z,9.598
2023-01-19T11:30:17.167Z,9.692
2023-01-19T11:31:16.842Z,9.720
2023-01-19T11:32:16.579Z,9.744
2023-01-19T11:33:17.225Z,9.75
2023-01-19T11:34:16.758Z,9.805
2023-01-19T11:35:17.289Z,9.829
2023-01-19T11:36:16.815Z,9.888
2023-01-19T11:37:16.677Z,9.965
2023-01-19T11:38:17.085Z,9.984
2023-01-19T11:39:16.883Z,10
2023-01-19T11:40:16.752Z,9.984
2023-01-19T11:41:16.706Z,9.939
2023-01-19T11:42:16.951Z,9.965
2023-01-19T11:43:17.195Z,9.979
2023-01-19T11:44:16.375Z,9.975
2023-01-19T11:45:16.951Z,10.02
2023-01-19T11:46:17.489Z,10.07
2023-01-19T11:47:17.033Z,10.10
2023-01-19T11:48:16.590Z,10.12
2023-01-19T11:49:17.134Z,10.14
2023-01-19T11:50:16.839Z,10.18
2023-01-19T11:51:16.734Z,10.23
2023-01-19T11:52:17.182Z,10.22
2023-01-19T11:53:16.811Z,10.22
2023-01-19T11:54:17.224Z,10.22
2023-01-19T11:55:17.160Z,10.28
2023-01-19T11:56:16.980Z,10.34
2023-01-19T11:57:17.047Z,10.33
2023-01-19T11:58:17.111Z,10.29
2023-01-19T11:59:17.167Z,10.28
2023-01-19T12:00:17.395Z,10.33
2023-01-19T12:01:17.053Z,10.38
2023-01-19T12:02:16.448Z,10.37
2023-01-19T12:03:17.220Z,10.32
2023-01-19T12:04:16.807Z,10.24
2023-01-19T12:05:17.494Z,10.22
2023-01-19T12:06:16.829Z,10.27
2023-01-19T12:07:16.993Z,10.32
2023-01-19T12:08:16.444Z,10.32
2023-01-19T12:09:16.953Z,10.33
2023-01-19T12:10:17.398Z,10.35
2023-01-19T12:11:16.611Z,10.45
2023-01-19T12:12:17.168Z,10.51
2023-01-19T12:13:16.704Z,10.52
2023-01-19T12:14:16.814Z,10.59
2023-01-19T12:15:16.735Z,10.64
2023-01-19T12:16:16.914Z,10.64
2023-01-19T12:17:17.391Z,10.65
2023-01-19T12:18:16.669Z,10.63
2023-01-19T12:19:16.898Z,10.58
2023-01-19T12:20:17.348Z,10.58
2023-01-19T12:21:16.895Z,10.56
2023-01-19T12:22:17.096Z,10.56
2023-01-19T12:23:16.847Z,10.59
2023-01-19T12:24:17.206Z,10.56
2023-01-19T12:25:17.066Z,10.60
2023-01-19T12:26:16.682Z,10.62
2023-01-19T12:27:17.113Z,10.66
2023-01-19T12:28:16.354Z,10.65
2023-01-19T12:29:16.643Z,10.59
2023-01-19T12:30:16.759Z,10.55
2023-01-19T12:31:16.860Z,10.55
2023-01-19T12:32:16.679Z,10.53
2023-01-19T12:33:17.249Z,10.55
2023-01-19T12:34:15.911Z,10.55
2023-01-19T12:35:16.928Z,10.56
2023-01-19T12:36:16.569Z,10.56
2023-01-19T12:37:17.127Z,10.59
2023-01-19T12:38:16.752Z,10.60
2023-01-19T12:39:17.101Z,10.55
2023-01-19T12:40:16.987Z,10.55
2023-01-19T12:41:16.775Z,10.55
2023-01-19T12:42:16.797Z,10.62
2023-01-19T12:43:17.491Z,10.65
2023-01-19T12:44:16.740Z,10.62
2023-01-19T12:45:16.983Z,10.64
2023-01-19T12:46:16.055Z,10.62
2023-01-19T12:47:16.751Z,10.59
2023-01-19T12:48:16.868Z,10.64
2023-01-19T12:49:17.408Z,10.68
2023-01-19T12:50:16.941Z,10.70
2023-01-19T12:51:16.799Z,10.72
2023-01-19T12:52:16.956Z,10.76
2023-01-19T12:53:16.591Z,10.79
2023-01-19T12:54:16.379Z,10.82
2023-01-19T12:55:17.071Z,10.80